createdAt,value
2022-07-29T00:01:00.339Z,0.73
2022-07-29T00:03:26.846Z,0.63
2022-07-29T00:05:54.125Z,0.70
2022-07-29T00:08:21.023Z,0.80
2022-07-29T00:10:47.561Z,0.88
2022-07-29T00:13:14.182Z,1.45
2022-07-29T00:15:40.745Z,1.00
2022-07-29T00:18:07.295Z,0.70
2022-07-29T00:20:33.762Z,0.77
2022-07-29T00:23:00.478Z,0.80
2022-07-29T00:25:27.114Z,0.98
2022-07-29T00:27:53.610Z,0.90
2022-07-29T00:30:20.291Z,0.80
2022-07-29T00:32:46.782Z,0.60
2022-07-29T00:35:31.567Z,0.95
2022-07-29T00:38:02.154Z,0.82
2022-07-29T00:40:28.775Z,0.82
2022-07-29T00:42:55.468Z,1.00
2022-07-29T00:45:23.071Z,0.93
2022-07-29T00:47:49.886Z,0.80
2022-07-29T00:50:16.640Z,0.77
2022-07-29T00:52:43.685Z,0.85
2022-07-29T00:55:13.362Z,1.20
2022-07-29T00:57:41.188Z,1.20
2022-07-29T01:00:10.464Z,0.90
2022-07-29T01:02:37.144Z,1.10
2022-07-29T01:05:05.181Z,0.98
2022-07-29T01:10:00.151Z,1.30
2022-07-29T01:12:28.435Z,1.00
2022-07-29T01:14:56.556Z,1.10
2022-07-29T01:17:52.789Z,0.90
2022-07-29T01:20:43.272Z,0.93
2022-07-29T01:23:27.254Z,1.08
2022-07-29T01:26:20.270Z,1.02
2022-07-29T01:29:12.168Z,0.80
2022-07-29T01:32:00.588Z,1.48
2022-07-29T01:34:41.606Z,1.17
2022-07-29T01:37:18.706Z,1.00
2022-07-29T01:39:48.405Z,0.80
2022-07-29T01:42:33.952Z,0.80
2022-07-29T01:45:10.254Z,1.40
2022-07-29T01:47:55.257Z,1.20
2022-07-29T01:50:27.620Z,0.90
2022-07-29T01:52:59.438Z,0.98
2022-07-29T01:55:32.100Z,1.67
2022-07-29T01:58:04.138Z,0.95
2022-07-29T02:00:33.076Z,1.42
2022-07-29T02:03:01.840Z,1.30
2022-07-29T02:05:30.758Z,0.90
2022-07-29T02:08:00.142Z,0.95
2022-07-29T02:10:30.702Z,1.15
2022-07-29T02:13:01.613Z,0.85
2022-07-29T02:15:31.237Z,0.90
2022-07-29T02:18:16.593Z,1.30
2022-07-29T02:20:50.195Z,1.30
2022-07-29T02:23:21.484Z,1.33
2022-07-29T02:25:57.606Z,1.30
2022-07-29T02:28:28.406Z,0.95
2022-07-29T02:31:00.539Z,1.25
2022-07-29T02:33:30.792Z,1.05
2022-07-29T02:35:59.352Z,0.85
2022-07-29T02:38:47.052Z,1.42
2022-07-29T02:41:17.977Z,1.30
2022-07-29T02:43:48.273Z,0.95
2022-07-29T02:46:29.324Z,1.35
2022-07-29T02:49:10.325Z,1.08
2022-07-29T02:51:47.637Z,1.10
2022-07-29T02:54:47.054Z,1.02
2022-07-29T02:57:31.381Z,1.17
2022-07-29T03:00:04.332Z,0.85
2022-07-29T03:02:37.553Z,1.77
2022-07-29T03:05:07.533Z,1.00
2022-07-29T03:07:36.478Z,0.90
2022-07-29T03:10:03.865Z,1.20
2022-07-29T03:12:31.489Z,0.75
2022-07-29T03:15:00.082Z,0.98
2022-07-29T03:17:26.949Z,0.95
2022-07-29T03:19:54.084Z,1.40
2022-07-29T03:22:20.846Z,1.30
2022-07-29T03:24:47.404Z,0.98
2022-07-29T03:27:14.151Z,1.00
2022-07-29T03:29:40.543Z,1.13
2022-07-29T03:32:10.067Z,1.05
2022-07-29T03:34:38.864Z,1.13
2022-07-29T03:37:07.077Z,2.08
2022-07-29T03:39:39.485Z,2.03
2022-07-29T03:42:08.868Z,1.35
2022-07-29T03:44:36.179Z,1.02
2022-07-29T03:47:03.810Z,1.05
2022-07-29T03:49:32.208Z,1.10
2022-07-29T03:51:59.336Z,1.00
2022-07-29T03:54:25.849Z,1.30
2022-07-29T03:56:55.128Z,1.13
2022-07-29T03:59:23.451Z,1.10
2022-07-29T04:01:51.061Z,0.90
2022-07-29T04:04:18.071Z,1.10
2022-07-29T04:06:46.690Z,0.85
2022-07-29T04:09:15.105Z,1.20
2022-07-29T04:11:57.039Z,1.02
2022-07-29T04:14:30.157Z,1.00
2022-07-29T04:16:56.594Z,1.50
2022-07-29T04:19:23.521Z,1.13
2022-07-29T04:21:50.090Z,0.90
2022-07-29T04:24:17.741Z,1.13
2022-07-29T04:29:12.828Z,1.08
2022-07-29T04:31:39.385Z,1.08
2022-07-29T04:34:06.295Z,1.33
2022-07-29T04:36:33.245Z,1.30
2022-07-29T04:38:59.839Z,1.20
2022-07-29T04:41:33.445Z,1.17
2022-07-29T04:44:01.947Z,1.05
2022-07-29T04:46:28.902Z,0.90
2022-07-29T04:48:55.491Z,1.38
2022-07-29T04:51:22.059Z,1.10
2022-07-29T04:53:48.912Z,1.08
2022-07-29T04:56:15.379Z,1.20
2022-07-29T04:58:41.886Z,1.05
2022-07-29T05:01:08.592Z,1.10
2022-07-29T05:03:35.141Z,1.20
2022-07-29T05:06:01.542Z,1.02
2022-07-29T05:08:28.116Z,1.08
2022-07-29T05:10:54.641Z,1.23
2022-07-29T05:13:21.217Z,1.23
2022-07-29T05:15:47.956Z,1.25
2022-07-29T05:18:15.013Z,1.13
2022-07-29T05:20:41.771Z,1.00
2022-07-29T05:23:08.247Z,1.30
2022-07-29T05:25:42.046Z,1.48
2022-07-29T05:28:10.638Z,1.10
2022-07-29T05:30:37.313Z,0.95
2022-07-29T05:33:03.898Z,1.38
2022-07-29T05:35:30.320Z,1.48
2022-07-29T05:37:56.759Z,1.23
2022-07-29T05:40:23.288Z,1.17
2022-07-29T05:42:49.854Z,1.13
2022-07-29T05:45:16.438Z,1.95
2022-07-29T05:47:42.974Z,1.30
2022-07-29T05:50:09.763Z,1.30
2022-07-29T05:52:36.397Z,1.42
2022-07-29T05:55:05.217Z,1.20
2022-07-29T05:57:32.145Z,1.35
2022-07-29T05:59:59.154Z,1.08
2022-07-29T06:02:25.796Z,1.00
2022-07-29T06:04:52.316Z,1.50
2022-07-29T06:07:18.916Z,0.88
2022-07-29T06:09:45.428Z,1.10
2022-07-29T06:12:11.885Z,1.23
2022-07-29T06:14:39.148Z,1.30
2022-07-29T06:17:06.539Z,1.40
2022-07-29T06:19:35.434Z,1.00
2022-07-29T06:22:02.063Z,0.93
2022-07-29T06:24:28.739Z,1.40
2022-07-29T06:26:55.437Z,1.10
2022-07-29T06:29:21.910Z,1.30
2022-07-29T06:31:48.331Z,1.20
2022-07-29T06:34:15.071Z,1.13
2022-07-29T06:36:41.805Z,1.30
2022-07-29T06:39:09.331Z,1.27
2022-07-29T06:41:39.197Z,1.35
2022-07-29T06:44:05.758Z,1.23
2022-07-29T06:46:33.154Z,1.50
2022-07-29T06:49:00.005Z,1.38
2022-07-29T06:51:26.574Z,1.25
2022-07-29T06:53:59.397Z,0.80
2022-07-29T06:56:38.514Z,1.10
2022-07-29T06:59:07.230Z,1.00
2022-07-29T07:01:33.769Z,1.27
2022-07-29T07:04:00.257Z,1.08
2022-07-29T07:06:26.959Z,1.17
2022-07-29T07:08:53.377Z,1.20
2022-07-29T07:11:20.127Z,1.20
2022-07-29T07:13:46.544Z,1.25
2022-07-29T07:16:13.309Z,1.42
2022-07-29T07:18:39.824Z,1.38
2022-07-29T07:21:06.633Z,1.20
2022-07-29T07:23:33.236Z,2.17
2022-07-29T07:25:59.825Z,1.05
2022-07-29T07:28:26.316Z,1.20
2022-07-29T07:30:53.189Z,1.60
2022-07-29T07:33:19.794Z,1.20
2022-07-29T07:35:46.433Z,1.60
2022-07-29T07:38:13.250Z,1.20
2022-07-29T07:40:39.762Z,1.50
2022-07-29T07:43:06.431Z,1.23
2022-07-29T07:45:38.313Z,1.63
2022-07-29T07:48:05.726Z,1.10
2022-07-29T07:50:32.386Z,1.70
2022-07-29T07:53:03.064Z,2.08
2022-07-29T07:55:42.448Z,1.52
2022-07-29T07:58:16.261Z,1.70
2022-07-29T08:00:42.771Z,1.30
2022-07-29T08:03:16.808Z,1.42
2022-07-29T08:05:44.234Z,1.38
2022-07-29T08:08:10.750Z,1.48
2022-07-29T08:10:55.856Z,1.77
2022-07-29T08:13:24.163Z,1.33
2022-07-29T08:16:11.933Z,1.55
2022-07-29T08:18:39.915Z,1.27
2022-07-29T08:21:06.870Z,1.50
2022-07-29T08:23:45.515Z,1.50
2022-07-29T08:26:15.386Z,1.55
2022-07-29T08:28:46.797Z,1.85
2022-07-29T08:31:14.264Z,1.27
2022-07-29T08:33:40.802Z,1.60
2022-07-29T08:36:07.452Z,1.48
2022-07-29T08:38:34.236Z,2.03
2022-07-29T08:41:04.448Z,2.08
2022-07-29T08:43:31.008Z,1.88
2022-07-29T08:45:57.939Z,2.08
2022-07-29T08:48:25.618Z,1.92
2022-07-29T08:50:57.005Z,1.90
2022-07-29T08:53:30.788Z,2.17
2022-07-29T08:55:59.262Z,2.20
2022-07-29T08:58:27.668Z,1.55
2022-07-29T09:00:56.006Z,1.90
2022-07-29T09:03:26.784Z,1.83
2022-07-29T09:05:54.015Z,2.20
2022-07-29T09:08:21.053Z,1.88
2022-07-29T09:10:47.952Z,2.35
2022-07-29T09:13:14.595Z,2.13
2022-07-29T09:15:41.257Z,2.72
2022-07-29T09:18:07.877Z,1.77
2022-07-29T09:21:12.265Z,2.30
2022-07-29T09:23:40.601Z,2.20
2022-07-29T09:26:07.266Z,1.95
2022-07-29T09:28:34.021Z,2.20
2022-07-29T09:31:00.512Z,2.30
2022-07-29T09:33:40.128Z,2.50
2022-07-29T09:36:08.923Z,2.58
2022-07-29T09:38:37.549Z,2.00
2022-07-29T09:41:06.550Z,2.50
2022-07-29T09:43:34.657Z,2.90
2022-07-29T09:46:14.730Z,2.53
2022-07-29T09:48:41.543Z,2.90
2022-07-29T09:51:25.417Z,2.90
2022-07-29T09:53:55.226Z,2.70
2022-07-29T09:56:39.005Z,3.08
2022-07-29T09:59:09.571Z,2.35
2022-07-29T10:01:36.932Z,3.53
2022-07-29T10:04:04.014Z,2.47
2022-07-29T10:06:30.623Z,2.55
2022-07-29T10:09:09.237Z,2.80
2022-07-29T10:11:49.573Z,2.63
2022-07-29T10:14:16.878Z,2.80
2022-07-29T10:16:43.843Z,2.83
2022-07-29T10:19:10.600Z,2.85
2022-07-29T10:21:38.734Z,2.60
2022-07-29T10:24:06.910Z,2.70
2022-07-29T10:26:41.892Z,2.60
2022-07-29T10:29:08.335Z,2.33
2022-07-29T10:31:57.405Z,2.95
2022-07-29T10:34:45.683Z,3.00
2022-07-29T10:37:36.017Z,2.63
2022-07-29T10:40:34.624Z,2.55
2022-07-29T10:43:21.867Z,2.58
2022-07-29T10:48:19.658Z,2.53
2022-07-29T10:51:06.953Z,2.17
2022-07-29T10:53:51.515Z,2.70
2022-07-29T10:56:28.873Z,3.33
2022-07-29T10:59:27.144Z,3.15
2022-07-29T11:02:35.416Z,2.90
2022-07-29T11:04:52.274Z,3.00
2022-07-29T11:07:18.831Z,2.20
2022-07-29T11:10:14.448Z,3.17
2022-07-29T11:12:44.170Z,3.15
2022-07-29T11:15:22.421Z,2.88
2022-07-29T11:17:54.638Z,3.35
2022-07-29T11:20:37.912Z,2.70
2022-07-29T11:26:21.228Z,2.97
2022-07-29T11:29:18.057Z,2.90
2022-07-29T11:31:49.292Z,3.00
2022-07-29T11:34:27.974Z,2.70
2022-07-29T11:37:17.720Z,3.05
2022-07-29T11:40:09.842Z,3.60
2022-07-29T11:42:36.759Z,3.58
2022-07-29T11:45:42.697Z,3.10
2022-07-29T11:48:29.099Z,3.22
2022-07-29T11:50:48.536Z,3.35
2022-07-29T11:53:16.197Z,3.10
2022-07-29T11:55:51.514Z,3.60
2022-07-29T11:58:25.090Z,3.35
2022-07-29T12:00:52.788Z,3.53
2022-07-29T12:03:32.816Z,3.25
2022-07-29T12:06:01.534Z,3.30
2022-07-29T12:08:28.624Z,3.00
2022-07-29T12:10:55.188Z,3.22
2022-07-29T12:13:22.383Z,2.92
2022-07-29T12:16:00.121Z,3.55
2022-07-29T12:18:28.792Z,3.22
2022-07-29T12:21:05.600Z,3.35
2022-07-29T12:23:34.409Z,3.28
2022-07-29T12:26:04.704Z,3.22
2022-07-29T12:28:38.557Z,3.97
2022-07-29T12:31:05.960Z,3.50
2022-07-29T12:33:32.769Z,3.30
2022-07-29T12:36:07.621Z,3.17
2022-07-29T12:38:36.758Z,3.45
2022-07-29T12:41:04.673Z,3.63
2022-07-29T12:43:31.509Z,3.30
2022-07-29T12:45:58.906Z,3.72
2022-07-29T12:48:42.772Z,3.05
2022-07-29T12:51:12.421Z,3.00
2022-07-29T12:53:39.369Z,2.97
2022-07-29T12:56:20.749Z,3.30
2022-07-29T12:58:53.178Z,3.40
2022-07-29T13:01:21.155Z,3.15
2022-07-29T13:03:56.823Z,3.35
2022-07-29T13:06:51.136Z,3.83
2022-07-29T13:09:24.002Z,2.75
2022-07-29T13:11:54.428Z,3.30
2022-07-29T13:14:44.762Z,3.08
2022-07-29T13:17:19.057Z,3.25
2022-07-29T13:19:53.916Z,3.65
2022-07-29T13:22:22.900Z,3.17
2022-07-29T13:24:55.023Z,3.90
2022-07-29T13:27:23.856Z,3.35
2022-07-29T13:29:53.865Z,3.40
2022-07-29T13:32:28.630Z,3.40
2022-07-29T13:35:04.928Z,3.25
2022-07-29T13:37:34.857Z,2.72
2022-07-29T13:40:04.002Z,2.92
2022-07-29T13:42:30.704Z,4.20
2022-07-29T13:44:57.659Z,2.40
2022-07-29T13:47:32.592Z,2.95
2022-07-29T13:50:02.270Z,3.22
2022-07-29T13:52:29.030Z,3.10
2022-07-29T13:54:55.461Z,3.47
2022-07-29T13:57:21.887Z,4.10
2022-07-29T13:59:53.723Z,4.07
2022-07-29T14:02:20.923Z,4.07
2022-07-29T14:04:47.427Z,3.70
2022-07-29T14:07:16.386Z,3.83
2022-07-29T14:09:43.220Z,3.50
2022-07-29T14:12:10.040Z,2.88
2022-07-29T14:14:37.550Z,3.38
2022-07-29T14:17:04.994Z,2.90
2022-07-29T14:19:33.169Z,3.20
2022-07-29T14:22:00.171Z,3.10
2022-07-29T14:24:27.150Z,2.83
2022-07-29T14:26:53.625Z,2.70
2022-07-29T14:29:20.182Z,3.33
2022-07-29T14:31:47.036Z,3.30
2022-07-29T14:34:13.532Z,2.75
2022-07-29T14:36:40.343Z,3.03
2022-07-29T14:39:06.808Z,3.50
2022-07-29T14:41:33.737Z,2.95
2022-07-29T14:44:03.045Z,3.40
2022-07-29T14:46:29.763Z,3.75
2022-07-29T14:48:56.698Z,3.60
2022-07-29T14:51:23.226Z,3.40
2022-07-29T14:53:49.830Z,2.45
2022-07-29T14:56:35.921Z,3.42
2022-07-29T14:59:02.851Z,3.17
2022-07-29T15:01:30.060Z,2.90
2022-07-29T15:03:59.656Z,2.25
2022-07-29T15:06:27.121Z,3.67
2022-07-29T15:08:53.513Z,2.55
2022-07-29T15:11:19.977Z,2.70
2022-07-29T15:13:46.710Z,1.92
2022-07-29T15:16:13.250Z,2.33
2022-07-29T15:18:39.962Z,2.13
2022-07-29T15:21:07.882Z,2.10
2022-07-29T15:23:37.060Z,2.28
2022-07-29T15:26:05.034Z,2.22
2022-07-29T15:28:31.578Z,1.98
2022-07-29T15:30:58.478Z,2.05
2022-07-29T15:33:24.982Z,2.50
2022-07-29T15:35:51.531Z,2.30
2022-07-29T15:38:18.280Z,2.30
2022-07-29T15:40:45.337Z,1.95
2022-07-29T15:43:12.529Z,2.35
2022-07-29T15:46:02.616Z,1.95
2022-07-29T15:48:29.513Z,3.00
2022-07-29T15:50:56.232Z,2.53
2022-07-29T15:53:22.857Z,2.55
2022-07-29T15:55:49.461Z,1.88
2022-07-29T15:58:15.954Z,2.40
2022-07-29T16:00:42.544Z,3.00
2022-07-29T16:03:08.974Z,2.22
2022-07-29T16:05:35.425Z,2.53
2022-07-29T16:08:04.148Z,2.22
2022-07-29T16:10:30.585Z,2.50
2022-07-29T16:12:57.445Z,2.28
2022-07-29T16:15:24.254Z,2.15
2022-07-29T16:17:50.749Z,1.88
2022-07-29T16:20:17.658Z,2.33
2022-07-29T16:22:44.310Z,2.22
2022-07-29T16:25:10.836Z,2.25
2022-07-29T16:27:38.294Z,2.22
2022-07-29T16:32:34.913Z,2.70
2022-07-29T16:35:02.709Z,2.92
2022-07-29T16:37:33.422Z,3.00
2022-07-29T16:40:00.213Z,2.70
2022-07-29T16:42:45.504Z,3.13
2022-07-29T16:45:13.566Z,3.10
2022-07-29T16:47:42.622Z,3.15
2022-07-29T16:50:09.358Z,3.45
2022-07-29T16:52:37.515Z,2.47
2022-07-29T16:55:04.695Z,3.17
2022-07-29T16:57:31.204Z,2.42
2022-07-29T16:59:57.817Z,2.58
2022-07-29T17:02:24.323Z,3.35
2022-07-29T17:04:51.316Z,2.63
2022-07-29T17:07:17.755Z,3.00
2022-07-29T17:09:44.244Z,2.90
2022-07-29T17:12:10.754Z,3.33
2022-07-29T17:14:38.239Z,3.00
2022-07-29T17:17:05.593Z,3.05
2022-07-29T17:19:43.217Z,2.58
2022-07-29T17:22:14.324Z,3.65
2022-07-29T17:24:42.952Z,3.40
2022-07-29T17:27:10.343Z,2.88
2022-07-29T17:29:37.314Z,3.50
2022-07-29T17:32:04.118Z,2.60
2022-07-29T17:34:36.105Z,2.85
2022-07-29T17:37:03.205Z,3.35
2022-07-29T17:39:29.809Z,3.30
2022-07-29T17:41:57.849Z,3.35
2022-07-29T17:44:27.441Z,3.30
2022-07-29T17:46:54.001Z,3.47
2022-07-29T17:49:20.743Z,3.55
2022-07-29T17:51:47.367Z,3.75
2022-07-29T17:54:14.166Z,3.10
2022-07-29T17:56:41.473Z,3.42
2022-07-29T17:59:10.013Z,4.15
2022-07-29T18:01:38.274Z,2.83
2022-07-29T18:04:05.022Z,3.58
2022-07-29T18:06:31.566Z,2.45
2022-07-29T18:09:00.852Z,3.05
2022-07-29T18:11:27.634Z,4.10
2022-07-29T18:13:54.137Z,3.55
2022-07-29T18:16:21.885Z,3.55
2022-07-29T18:18:48.599Z,3.85
2022-07-29T18:21:15.081Z,3.63
2022-07-29T18:23:42.316Z,2.88
2022-07-29T18:26:09.774Z,2.95
2022-07-29T18:28:36.289Z,3.58
2022-07-29T18:31:02.906Z,2.75
2022-07-29T18:33:29.497Z,3.08
2022-07-29T18:36:11.195Z,2.78
2022-07-29T18:38:39.852Z,2.67
2022-07-29T18:41:08.419Z,2.38
2022-07-29T18:43:36.177Z,2.47
2022-07-29T18:46:02.750Z,2.83
2022-07-29T18:48:29.293Z,2.28
2022-07-29T18:50:55.934Z,2.55
2022-07-29T18:53:25.112Z,3.47
2022-07-29T18:55:51.723Z,2.97
2022-07-29T18:58:18.187Z,2.60
2022-07-29T19:00:44.727Z,2.65
2022-07-29T19:03:11.425Z,2.45
2022-07-29T19:05:38.232Z,3.22
2022-07-29T19:08:04.937Z,2.65
2022-07-29T19:10:32.533Z,3.00
2022-07-29T19:12:59.415Z,2.40
2022-07-29T19:15:26.081Z,3.53
2022-07-29T19:17:52.568Z,2.97
2022-07-29T19:20:19.209Z,2.92
2022-07-29T19:22:46.455Z,2.20
2022-07-29T19:25:13.325Z,2.67
2022-07-29T19:27:41.788Z,3.03
2022-07-29T19:30:09.602Z,3.15
2022-07-29T19:35:22.031Z,2.25
2022-07-29T19:37:48.666Z,3.30
2022-07-29T19:40:16.219Z,2.45
2022-07-29T19:42:43.480Z,2.65
2022-07-29T19:45:11.657Z,3.20
2022-07-29T19:47:38.212Z,2.45
2022-07-29T19:50:05.446Z,2.63
2022-07-29T19:52:32.129Z,3.42
2022-07-29T19:54:59.829Z,2.00
2022-07-29T19:57:28.496Z,3.13
2022-07-29T20:00:11.134Z,2.10
2022-07-29T20:02:39.343Z,2.80
2022-07-29T20:07:32.589Z,2.20
2022-07-29T20:09:59.283Z,2.30
2022-07-29T20:12:25.926Z,2.67
2022-07-29T20:14:53.073Z,2.88
2022-07-29T20:17:25.299Z,2.70
2022-07-29T20:19:52.883Z,2.55
2022-07-29T20:22:20.800Z,2.67
2022-07-29T20:24:48.409Z,2.13
2022-07-29T20:27:14.963Z,2.83
2022-07-29T20:29:41.510Z,2.38
2022-07-29T20:32:08.082Z,2.20
2022-07-29T20:34:34.625Z,2.70
2022-07-29T20:37:02.744Z,2.10
2022-07-29T20:39:29.422Z,2.53
2022-07-29T20:41:56.190Z,2.63
2022-07-29T20:44:24.255Z,3.00
2022-07-29T20:46:50.895Z,2.97
2022-07-29T20:49:17.477Z,2.67
2022-07-29T20:51:44.315Z,2.50
2022-07-29T20:54:11.081Z,2.45
2022-07-29T20:56:38.114Z,2.45
2022-07-29T20:59:04.843Z,2.53
2022-07-29T21:01:31.334Z,2.60
2022-07-29T21:03:57.965Z,2.53
2022-07-29T21:06:24.452Z,2.95
2022-07-29T21:08:50.842Z,2.83
2022-07-29T21:11:17.828Z,3.45
2022-07-29T21:14:04.440Z,2.50
2022-07-29T21:16:33.293Z,2.80
2022-07-29T21:18:59.797Z,2.83
2022-07-29T21:21:26.858Z,3.58
2022-07-29T21:23:53.478Z,2.80
2022-07-29T21:26:20.109Z,3.00
2022-07-29T21:28:46.627Z,2.42
2022-07-29T21:31:17.441Z,2.38
2022-07-29T21:33:48.601Z,2.95
2022-07-29T21:36:46.391Z,2.67
2022-07-29T21:39:06.947Z,2.90
2022-07-29T21:41:34.428Z,3.00
2022-07-29T21:44:01.394Z,2.83
2022-07-29T21:46:28.150Z,2.58
2022-07-29T21:48:55.046Z,2.47
2022-07-29T21:51:21.519Z,2.65
2022-07-29T21:53:52.418Z,2.85
2022-07-29T21:56:21.254Z,3.03
2022-07-29T21:58:50.025Z,2.72
2022-07-29T22:01:16.515Z,2.50
2022-07-29T22:03:45.797Z,3.00
2022-07-29T22:06:17.868Z,3.42
2022-07-29T22:08:45.633Z,2.95
2022-07-29T22:11:13.479Z,2.83
2022-07-29T22:13:41.547Z,2.95
2022-07-29T22:16:10.042Z,2.97
2022-07-29T22:18:36.584Z,2.95
2022-07-29T22:21:03.127Z,2.78
2022-07-29T22:23:29.537Z,2.42
2022-07-29T22:25:56.082Z,3.08
2022-07-29T22:28:22.605Z,3.65
2022-07-29T22:30:49.299Z,3.38
2022-07-29T22:33:17.810Z,3.50
2022-07-29T22:35:45.718Z,3.20
2022-07-29T22:38:15.257Z,2.55
2022-07-29T22:40:41.704Z,4.35
2022-07-29T22:43:08.203Z,3.30
2022-07-29T22:45:34.857Z,3.60
2022-07-29T22:48:01.434Z,3.72
2022-07-29T22:50:29.763Z,3.40
2022-07-29T22:52:56.249Z,3.67
2022-07-29T22:55:22.875Z,3.08
2022-07-29T22:57:49.341Z,2.78
2022-07-29T23:00:16.254Z,2.90
2022-07-29T23:02:42.773Z,3.22
2022-07-29T23:05:10.457Z,3.50
2022-07-29T23:10:04.871Z,2.83
2022-07-29T23:14:57.986Z,2.97
2022-07-29T23:17:24.480Z,3.50
2022-07-29T23:19:51.095Z,3.90
2022-07-29T23:22:18.456Z,4.07
2022-07-29T23:24:45.391Z,3.35
2022-07-29T23:27:11.840Z,4.13
2022-07-29T23:29:38.303Z,3.38
2022-07-29T23:32:05.225Z,3.40
2022-07-29T23:34:31.864Z,3.95
2022-07-29T23:36:59.207Z,3.78
2022-07-29T23:39:25.839Z,4.22
2022-07-29T23:41:52.393Z,4.13
2022-07-29T23:44:18.859Z,4.80
2022-07-29T23:46:45.453Z,4.57
2022-07-29T23:49:12.350Z,4.25
2022-07-29T23:51:38.854Z,4.30
2022-07-29T23:54:05.410Z,4.40
2022-07-29T23:56:31.879Z,4.18
2022-07-29T23:58:58.825Z,5.30
